Mayville, WI (53050)

7:38 PM CDT on October 24, 2014 (GMT -0500)
Dayton Street Commons | Change Station
CLOSE
Current Station
Personal Weather Station
Location: Mayville, WI
Elevation: 900 ft
Nearby Weather Stations

Elev 900 ft 43.50 °N, 88.56 °W | Updated 8 seconds ago

Overcast
Overcast
56.3 °F
Feels Like 56.3 °F
N
2.5
Wind Variable Wind from SW
Gusts 6.9 mph

Today
High -- | Low -- °F
--% Chance of Precip.
Yesterday
High -- | Low -- °F
Precip. -- in
7:19 AM 5:56 PM
New Moon, 1% visible
Pressure 29.94 in
Visibility 10.0 miles
Clouds Mostly Cloudy 4100 ft
Overcast 5000 ft
Dew Point 52 °F
Humidity 85%
Rainfall 0.00 in
Snow Depth Not available.
UV 0 out of 12
Pollen 1.10 out of 12
Air Quality Not available.
Flu Activity Sporadic
METAR KUNU 250015Z AUTO 15005KT 10SM BKN041 OVC050 12/10 A2994 RMK AO2 T01210097

More Conditions Fewer Conditions

Pressure 29.94 in
Visibility 10.0 miles
Clouds Mostly Cloudy 4100 ft
Overcast 5000 ft
Dew Point 52 °F
Humidity 85%
Rainfall 0.00 in
Snow Depth Not available.
UV 0 out of 12
Pollen 1.10 out of 12
Air Quality Not available.
Flu Activity Sporadic
METAR KUNU 250015Z AUTO 15005KT 10SM BKN041 OVC050 12/10 A2994 RMK AO2 T01210097

More Conditions Fewer Conditions

10-Day Weather Forecast

Almanac

Astronomy

Oct. 24, 2014 Rise Set
Actual Time 7:19 AM CDT 5:56 PM CDT
Civil Twilight 6:50 AM CDT 6:25 PM CDT
Nautical Twilight 6:16 AM CDT 6:59 PM CDT
Astronomical Twilight 5:43 AM CDT 7:32 PM CDT
Moon 7:59 AM CDT (10/24) 6:35 PM CDT (10/24)
Length of Visible Light 11h 35m
Length of Day
10h 37m
Tomorrow will be 2m 46s shorter.
New Moon, 1% of the Moon is Illuminated
Today
New Moon
Oct 30
First Quarter
Nov 6
Full
Nov 14
Last Quarter
Nov 22
New

Today's Extremes

State Highs State Lows

Community

WunderPhotos

Upload Photos

1,764,727 photos uploaded!

WunderBlogs® & News

Nearby

Snow Depth

Station Depth Elevation
No new snow has been reported.

Earthquake Activity

City Distance Mag. Time & Date
No recent earthquake activity has been reported nearby.
Minimum magnitude displayed is 2.5.

Coastal Water Temperatures

Place Temperature
No Stations Reporting

Nearby Weather Stations